sensor_id;sensor_type;location;lat;lon;timestamp;P1;durP1;ratioP1;P2;durP2;ratioP2
22614;SDS011;11474;50.790;0.298;2023-02-20T00:00:08;37.93;;;6.63;;
22614;SDS011;11474;50.790;0.298;2023-02-20T00:02:35;31.27;;;7.03;;
22614;SDS011;11474;50.790;0.298;2023-02-20T00:05:01;28.08;;;7.18;;
22614;SDS011;11474;50.790;0.298;2023-02-20T00:07:27;23.85;;;6.20;;
22614;SDS011;11474;50.790;0.298;2023-02-20T00:09:53;24.17;;;6.38;;
22614;SDS011;11474;50.790;0.298;2023-02-20T00:12:19;24.85;;;6.70;;
22614;SDS011;11474;50.790;0.298;2023-02-20T00:14:45;30.85;;;6.95;;
22614;SDS011;11474;50.790;0.298;2023-02-20T00:17:11;31.58;;;7.88;;
22614;SDS011;11474;50.790;0.298;2023-02-20T00:19:37;27.08;;;7.53;;
22614;SDS011;11474;50.790;0.298;2023-02-20T00:22:03;39.10;;;8.60;;
22614;SDS011;11474;50.790;0.298;2023-02-20T00:24:29;34.00;;;8.00;;
22614;SDS011;11474;50.790;0.298;2023-02-20T00:26:55;29.63;;;6.88;;
22614;SDS011;11474;50.790;0.298;2023-02-20T00:29:21;23.73;;;7.22;;
22614;SDS011;11474;50.790;0.298;2023-02-20T00:31:51;26.23;;;7.22;;
22614;SDS011;11474;50.790;0.298;2023-02-20T00:34:17;32.63;;;8.30;;
22614;SDS011;11474;50.790;0.298;2023-02-20T00:36:44;24.98;;;7.70;;
22614;SDS011;11474;50.790;0.298;2023-02-20T00:39:10;33.92;;;7.75;;
22614;SDS011;11474;50.790;0.298;2023-02-20T00:41:36;32.85;;;7.45;;
22614;SDS011;11474;50.790;0.298;2023-02-20T00:44:02;25.33;;;7.63;;
22614;SDS011;11474;50.790;0.298;2023-02-20T00:46:28;27.73;;;7.95;;
22614;SDS011;11474;50.790;0.298;2023-02-20T00:48:54;34.20;;;8.68;;
22614;SDS011;11474;50.790;0.298;2023-02-20T00:51:20;29.88;;;7.63;;
22614;SDS011;11474;50.790;0.298;2023-02-20T00:53:46;30.90;;;7.85;;
22614;SDS011;11474;50.790;0.298;2023-02-20T00:56:12;42.70;;;9.07;;
22614;SDS011;11474;50.790;0.298;2023-02-20T00:58:38;38.77;;;8.33;;
22614;SDS011;11474;50.790;0.298;2023-02-20T01:01:04;37.55;;;9.57;;
22614;SDS011;11474;50.790;0.298;2023-02-20T01:03:30;38.08;;;9.00;;
22614;SDS011;11474;50.790;0.298;2023-02-20T01:05:57;30.25;;;8.88;;
22614;SDS011;11474;50.790;0.298;2023-02-20T01:08:23;38.17;;;9.23;;
22614;SDS011;11474;50.790;0.298;2023-02-20T01:10:49;30.48;;;8.20;;
22614;SDS011;11474;50.790;0.298;2023-02-20T01:13:15;31.05;;;7.85;;
22614;SDS011;11474;50.790;0.298;2023-02-20T01:15:41;34.20;;;9.13;;
22614;SDS011;11474;50.790;0.298;2023-02-20T01:18:07;32.75;;;9.13;;
22614;SDS011;11474;50.790;0.298;2023-02-20T01:20:33;30.40;;;9.43;;
22614;SDS011;11474;50.790;0.298;2023-02-20T01:22:59;29.87;;;9.23;;
22614;SDS011;11474;50.790;0.298;2023-02-20T01:25:26;30.98;;;9.82;;
22614;SDS011;11474;50.790;0.298;2023-02-20T01:27:52;29.25;;;8.38;;
22614;SDS011;11474;50.790;0.298;2023-02-20T01:30:18;31.60;;;8.90;;
22614;SDS011;11474;50.790;0.298;2023-02-20T01:32:44;40.75;;;9.18;;
22614;SDS011;11474;50.790;0.298;2023-02-20T01:35:10;30.38;;;8.43;;
22614;SDS011;11474;50.790;0.298;2023-02-20T01:37:36;30.23;;;8.85;;
22614;SDS011;11474;50.790;0.298;2023-02-20T01:40:03;38.05;;;8.77;;
22614;SDS011;11474;50.790;0.298;2023-02-20T01:42:30;34.15;;;8.02;;
22614;SDS011;11474;50.790;0.298;2023-02-20T01:47:43;26.35;;;7.30;;
22614;SDS011;11474;50.790;0.298;2023-02-20T01:50:09;24.58;;;7.28;;
22614;SDS011;11474;50.790;0.298;2023-02-20T01:52:35;24.15;;;8.10;;
22614;SDS011;11474;50.790;0.298;2023-02-20T01:55:13;27.58;;;7.95;;
22614;SDS011;11474;50.790;0.298;2023-02-20T01:57:41;30.40;;;8.23;;
22614;SDS011;11474;50.790;0.298;2023-02-20T02:00:08;30.90;;;7.70;;
22614;SDS011;11474;50.790;0.298;2023-02-20T02:02:36;19.80;;;7.13;;
22614;SDS011;11474;50.790;0.298;2023-02-20T02:05:04;24.95;;;7.38;;
22614;SDS011;11474;50.790;0.298;2023-02-20T02:07:31;20.90;;;6.25;;
22614;SDS011;11474;50.790;0.298;2023-02-20T02:09:58;23.25;;;6.80;;
22614;SDS011;11474;50.790;0.298;2023-02-20T02:12:27;26.80;;;7.03;;
22614;SDS011;11474;50.790;0.298;2023-02-20T02:14:53;23.77;;;7.53;;
22614;SDS011;11474;50.790;0.298;2023-02-20T02:20:21;22.48;;;7.10;;
22614;SDS011;11474;50.790;0.298;2023-02-20T02:41:20;18.35;;;5.43;;
22614;SDS011;11474;50.790;0.298;2023-02-20T02:43:52;18.73;;;5.40;;
22614;SDS011;11474;50.790;0.298;2023-02-20T02:49:06;13.25;;;5.00;;
22614;SDS011;11474;50.790;0.298;2023-02-20T02:51:35;16.50;;;5.10;;
22614;SDS011;11474;50.790;0.298;2023-02-20T02:54:10;17.50;;;5.20;;
22614;SDS011;11474;50.790;0.298;2023-02-20T02:56:38;15.82;;;5.60;;
22614;SDS011;11474;50.790;0.298;2023-02-20T02:59:04;23.02;;;6.05;;
22614;SDS011;11474;50.790;0.298;2023-02-20T03:01:32;17.52;;;5.93;;
22614;SDS011;11474;50.790;0.298;2023-02-20T03:04:00;20.52;;;6.43;;
22614;SDS011;11474;50.790;0.298;2023-02-20T03:06:28;23.23;;;6.37;;
22614;SDS011;11474;50.790;0.298;2023-02-20T03:09:00;20.50;;;5.88;;
22614;SDS011;11474;50.790;0.298;2023-02-20T03:11:28;22.93;;;6.07;;
22614;SDS011;11474;50.790;0.298;2023-02-20T03:16:49;20.13;;;5.90;;
22614;SDS011;11474;50.790;0.298;2023-02-20T03:19:17;20.30;;;5.20;;
22614;SDS011;11474;50.790;0.298;2023-02-20T03:21:45;22.40;;;5.38;;
22614;SDS011;11474;50.790;0.298;2023-02-20T03:24:13;17.25;;;4.72;;
22614;SDS011;11474;50.790;0.298;2023-02-20T03:26:40;11.25;;;3.50;;
22614;SDS011;11474;50.790;0.298;2023-02-20T03:29:11;12.75;;;3.65;;
22614;SDS011;11474;50.790;0.298;2023-02-20T03:31:43;14.88;;;4.20;;
22614;SDS011;11474;50.790;0.298;2023-02-20T03:34:13;13.57;;;4.20;;
22614;SDS011;11474;50.790;0.298;2023-02-20T03:36:59;10.70;;;3.85;;
22614;SDS011;11474;50.790;0.298;2023-02-20T03:39:50;12.40;;;2.97;;
22614;SDS011;11474;50.790;0.298;2023-02-20T03:42:37;16.30;;;3.80;;
22614;SDS011;11474;50.790;0.298;2023-02-20T03:45:22;11.48;;;3.38;;
22614;SDS011;11474;50.790;0.298;2023-02-20T03:47:50;11.73;;;2.70;;
22614;SDS011;11474;50.790;0.298;2023-02-20T03:50:17;11.27;;;3.00;;
22614;SDS011;11474;50.790;0.298;2023-02-20T03:53:02;10.82;;;2.83;;
22614;SDS011;11474;50.790;0.298;2023-02-20T03:55:28;9.82;;;2.15;;
22614;SDS011;11474;50.790;0.298;2023-02-20T03:57:56;9.85;;;2.42;;
22614;SDS011;11474;50.790;0.298;2023-02-20T04:00:24;10.87;;;2.30;;
22614;SDS011;11474;50.790;0.298;2023-02-20T04:02:53;13.43;;;2.50;;
22614;SDS011;11474;50.790;0.298;2023-02-20T04:05:22;17.90;;;2.87;;
22614;SDS011;11474;50.790;0.298;2023-02-20T04:10:20;9.55;;;2.50;;
22614;SDS011;11474;50.790;0.298;2023-02-20T04:12:47;14.43;;;3.10;;
22614;SDS011;11474;50.790;0.298;2023-02-20T04:15:14;10.70;;;2.25;;
22614;SDS011;11474;50.790;0.298;2023-02-20T04:18:02;16.42;;;2.60;;
22614;SDS011;11474;50.790;0.298;2023-02-20T04:20:26;15.25;;;3.00;;
22614;SDS011;11474;50.790;0.298;2023-02-20T04:22:54;14.57;;;2.92;;
22614;SDS011;11474;50.790;0.298;2023-02-20T04:25:27;11.95;;;2.45;;
22614;SDS011;11474;50.790;0.298;2023-02-20T04:27:58;13.38;;;2.50;;
22614;SDS011;11474;50.790;0.298;2023-02-20T04:30:24;13.90;;;2.92;;
22614;SDS011;11474;50.790;0.298;2023-02-20T04:32:50;12.88;;;2.80;;
22614;SDS011;11474;50.790;0.298;2023-02-20T04:35:17;15.70;;;2.97;;
22614;SDS011;11474;50.790;0.298;2023-02-20T04:37:44;14.85;;;3.03;;
22614;SDS011;11474;50.790;0.298;2023-02-20T04:40:10;14.57;;;2.90;;
22614;SDS011;11474;50.790;0.298;2023-02-20T04:42:36;14.25;;;2.92;;
22614;SDS011;11474;50.790;0.298;2023-02-20T04:45:02;12.20;;;2.80;;
22614;SDS011;11474;50.790;0.298;2023-02-20T04:47:29;11.38;;;2.80;;
22614;SDS011;11474;50.790;0.298;2023-02-20T04:49:55;9.60;;;2.55;;
22614;SDS011;11474;50.790;0.298;2023-02-20T04:52:21;11.32;;;2.75;;
22614;SDS011;11474;50.790;0.298;2023-02-20T04:54:48;15.82;;;3.03;;
22614;SDS011;11474;50.790;0.298;2023-02-20T04:57:14;15.60;;;2.90;;
22614;SDS011;11474;50.790;0.298;2023-02-20T04:59:40;15.27;;;3.03;;
22614;SDS011;11474;50.790;0.298;2023-02-20T05:02:06;16.95;;;2.75;;
22614;SDS011;11474;50.790;0.298;2023-02-20T05:04:33;11.90;;;2.15;;
22614;SDS011;11474;50.790;0.298;2023-02-20T05:06:59;11.40;;;2.55;;
22614;SDS011;11474;50.790;0.298;2023-02-20T05:09:26;12.57;;;2.40;;
22614;SDS011;11474;50.790;0.298;2023-02-20T05:11:52;10.20;;;2.30;;
22614;SDS011;11474;50.790;0.298;2023-02-20T05:14:18;10.13;;;2.10;;
22614;SDS011;11474;50.790;0.298;2023-02-20T05:16:45;10.43;;;2.30;;
22614;SDS011;11474;50.790;0.298;2023-02-20T05:19:11;17.08;;;2.70;;
22614;SDS011;11474;50.790;0.298;2023-02-20T05:21:40;11.77;;;2.30;;
22614;SDS011;11474;50.790;0.298;2023-02-20T05:24:24;7.50;;;1.65;;
22614;SDS011;11474;50.790;0.298;2023-02-20T05:26:52;6.78;;;1.50;;
22614;SDS011;11474;50.790;0.298;2023-02-20T05:29:18;6.15;;;1.73;;
22614;SDS011;11474;50.790;0.298;2023-02-20T05:31:44;8.00;;;1.90;;
22614;SDS011;11474;50.790;0.298;2023-02-20T05:34:10;7.50;;;1.20;;
22614;SDS011;11474;50.790;0.298;2023-02-20T05:36:36;5.75;;;1.48;;
22614;SDS011;11474;50.790;0.298;2023-02-20T05:39:03;6.97;;;1.58;;
22614;SDS011;11474;50.790;0.298;2023-02-20T05:41:29;3.50;;;1.63;;
22614;SDS011;11474;50.790;0.298;2023-02-20T05:43:56;8.82;;;1.70;;
22614;SDS011;11474;50.790;0.298;2023-02-20T05:46:23;9.35;;;1.92;;
22614;SDS011;11474;50.790;0.298;2023-02-20T05:48:50;7.20;;;1.73;;
22614;SDS011;11474;50.790;0.298;2023-02-20T05:51:27;6.57;;;1.77;;
22614;SDS011;11474;50.790;0.298;2023-02-20T05:53:53;10.98;;;1.95;;
22614;SDS011;11474;50.790;0.298;2023-02-20T05:56:19;13.57;;;2.30;;
22614;SDS011;11474;50.790;0.298;2023-02-20T05:58:46;12.20;;;2.00;;
22614;SDS011;11474;50.790;0.298;2023-02-20T06:01:16;13.20;;;2.10;;
22614;SDS011;11474;50.790;0.298;2023-02-20T06:03:42;12.67;;;2.10;;
22614;SDS011;11474;50.790;0.298;2023-02-20T06:06:08;10.90;;;2.20;;
22614;SDS011;11474;50.790;0.298;2023-02-20T06:08:34;11.45;;;1.92;;
22614;SDS011;11474;50.790;0.298;2023-02-20T06:11:00;7.05;;;1.98;;
22614;SDS011;11474;50.790;0.298;2023-02-20T06:13:26;10.98;;;2.30;;
22614;SDS011;11474;50.790;0.298;2023-02-20T06:15:52;10.33;;;1.90;;
22614;SDS011;11474;50.790;0.298;2023-02-20T06:18:18;11.00;;;2.20;;
22614;SDS011;11474;50.790;0.298;2023-02-20T06:20:45;7.53;;;1.60;;
22614;SDS011;11474;50.790;0.298;2023-02-20T06:23:11;8.68;;;1.80;;
22614;SDS011;11474;50.790;0.298;2023-02-20T06:25:37;9.93;;;2.05;;
22614;SDS011;11474;50.790;0.298;2023-02-20T06:28:03;10.75;;;1.80;;
22614;SDS011;11474;50.790;0.298;2023-02-20T06:30:29;9.18;;;2.00;;
22614;SDS011;11474;50.790;0.298;2023-02-20T06:32:55;9.43;;;2.30;;
22614;SDS011;11474;50.790;0.298;2023-02-20T06:35:21;13.48;;;2.17;;
22614;SDS011;11474;50.790;0.298;2023-02-20T06:37:47;11.90;;;2.33;;
22614;SDS011;11474;50.790;0.298;2023-02-20T06:40:13;13.73;;;2.80;;
22614;SDS011;11474;50.790;0.298;2023-02-20T06:42:39;10.82;;;2.33;;
22614;SDS011;11474;50.790;0.298;2023-02-20T06:45:05;14.93;;;2.35;;
22614;SDS011;11474;50.790;0.298;2023-02-20T06:47:32;11.98;;;2.60;;
22614;SDS011;11474;50.790;0.298;2023-02-20T06:49:58;12.38;;;2.10;;
22614;SDS011;11474;50.790;0.298;2023-02-20T06:52:24;11.57;;;2.20;;
22614;SDS011;11474;50.790;0.298;2023-02-20T06:54:50;12.70;;;2.20;;
22614;SDS011;11474;50.790;0.298;2023-02-20T06:57:18;10.50;;;1.80;;
22614;SDS011;11474;50.790;0.298;2023-02-20T06:59:44;10.30;;;2.17;;
22614;SDS011;11474;50.790;0.298;2023-02-20T07:02:12;11.27;;;2.40;;
22614;SDS011;11474;50.790;0.298;2023-02-20T07:04:38;10.15;;;2.33;;
22614;SDS011;11474;50.790;0.298;2023-02-20T07:07:05;10.70;;;2.17;;
22614;SDS011;11474;50.790;0.298;2023-02-20T07:09:31;8.25;;;2.00;;
22614;SDS011;11474;50.790;0.298;2023-02-20T07:11:57;5.25;;;1.83;;
22614;SDS011;11474;50.790;0.298;2023-02-20T07:14:23;6.40;;;1.65;;
22614;SDS011;11474;50.790;0.298;2023-02-20T07:16:49;5.40;;;1.48;;
22614;SDS011;11474;50.790;0.298;2023-02-20T07:19:16;3.45;;;1.73;;
22614;SDS011;11474;50.790;0.298;2023-02-20T07:21:42;5.80;;;1.60;;
22614;SDS011;11474;50.790;0.298;2023-02-20T07:24:08;3.47;;;1.15;;
22614;SDS011;11474;50.790;0.298;2023-02-20T07:26:34;4.57;;;1.50;;
22614;SDS011;11474;50.790;0.298;2023-02-20T07:29:02;4.90;;;1.60;;
22614;SDS011;11474;50.790;0.298;2023-02-20T07:31:29;8.02;;;2.15;;
22614;SDS011;11474;50.790;0.298;2023-02-20T07:33:55;9.25;;;2.50;;
22614;SDS011;11474;50.790;0.298;2023-02-20T07:36:21;10.18;;;2.50;;
22614;SDS011;11474;50.790;0.298;2023-02-20T07:38:54;7.20;;;2.25;;
22614;SDS011;11474;50.790;0.298;2023-02-20T07:41:20;15.77;;;3.30;;
22614;SDS011;11474;50.790;0.298;2023-02-20T07:43:46;11.55;;;2.55;;
22614;SDS011;11474;50.790;0.298;2023-02-20T07:46:13;11.18;;;2.80;;
22614;SDS011;11474;50.790;0.298;2023-02-20T07:48:39;11.70;;;3.05;;
22614;SDS011;11474;50.790;0.298;2023-02-20T07:51:05;11.23;;;3.30;;
22614;SDS011;11474;50.790;0.298;2023-02-20T07:53:31;11.88;;;3.55;;
22614;SDS011;11474;50.790;0.298;2023-02-20T07:55:57;9.90;;;3.20;;
22614;SDS011;11474;50.790;0.298;2023-02-20T07:58:23;13.52;;;3.08;;
22614;SDS011;11474;50.790;0.298;2023-02-20T08:00:49;12.18;;;2.90;;
22614;SDS011;11474;50.790;0.298;2023-02-20T08:03:17;10.20;;;2.90;;
22614;SDS011;11474;50.790;0.298;2023-02-20T08:05:44;12.07;;;2.88;;
22614;SDS011;11474;50.790;0.298;2023-02-20T08:08:10;14.23;;;3.10;;
22614;SDS011;11474;50.790;0.298;2023-02-20T08:10:36;12.52;;;3.35;;
22614;SDS011;11474;50.790;0.298;2023-02-20T08:13:03;9.57;;;2.92;;
22614;SDS011;11474;50.790;0.298;2023-02-20T08:15:29;11.77;;;3.38;;
22614;SDS011;11474;50.790;0.298;2023-02-20T08:17:55;13.52;;;3.60;;
22614;SDS011;11474;50.790;0.298;2023-02-20T08:20:21;14.00;;;3.40;;
22614;SDS011;11474;50.790;0.298;2023-02-20T08:22:48;11.52;;;3.72;;
22614;SDS011;11474;50.790;0.298;2023-02-20T08:25:15;16.52;;;3.90;;
22614;SDS011;11474;50.790;0.298;2023-02-20T08:27:42;9.35;;;3.63;;
22614;SDS011;11474;50.790;0.298;2023-02-20T08:30:27;14.55;;;3.83;;
22614;SDS011;11474;50.790;0.298;2023-02-20T08:32:53;15.30;;;3.72;;
22614;SDS011;11474;50.790;0.298;2023-02-20T08:35:20;18.13;;;4.00;;
22614;SDS011;11474;50.790;0.298;2023-02-20T08:37:49;14.23;;;3.80;;
22614;SDS011;11474;50.790;0.298;2023-02-20T08:40:15;14.20;;;4.43;;
22614;SDS011;11474;50.790;0.298;2023-02-20T08:42:41;12.63;;;3.92;;
22614;SDS011;11474;50.790;0.298;2023-02-20T08:45:08;22.30;;;3.92;;
22614;SDS011;11474;50.790;0.298;2023-02-20T08:47:35;14.38;;;3.80;;
22614;SDS011;11474;50.790;0.298;2023-02-20T08:50:01;13.73;;;3.30;;
22614;SDS011;11474;50.790;0.298;2023-02-20T08:52:27;18.02;;;3.75;;
22614;SDS011;11474;50.790;0.298;2023-02-20T08:54:53;16.00;;;4.07;;
22614;SDS011;11474;50.790;0.298;2023-02-20T08:57:19;10.57;;;3.58;;
22614;SDS011;11474;50.790;0.298;2023-02-20T08:59:46;12.53;;;3.77;;
22614;SDS011;11474;50.790;0.298;2023-02-20T09:02:19;14.82;;;3.53;;
22614;SDS011;11474;50.790;0.298;2023-02-20T09:04:46;10.70;;;3.90;;
22614;SDS011;11474;50.790;0.298;2023-02-20T09:07:12;15.60;;;4.30;;
22614;SDS011;11474;50.790;0.298;2023-02-20T09:09:39;14.20;;;4.00;;
22614;SDS011;11474;50.790;0.298;2023-02-20T09:12:05;13.27;;;3.83;;
22614;SDS011;11474;50.790;0.298;2023-02-20T09:14:31;13.68;;;4.00;;
22614;SDS011;11474;50.790;0.298;2023-02-20T09:16:58;17.13;;;3.97;;
22614;SDS011;11474;50.790;0.298;2023-02-20T09:19:24;17.33;;;4.80;;
22614;SDS011;11474;50.790;0.298;2023-02-20T09:21:51;12.10;;;3.90;;
22614;SDS011;11474;50.790;0.298;2023-02-20T09:24:17;15.98;;;4.38;;
22614;SDS011;11474;50.790;0.298;2023-02-20T09:26:43;15.48;;;4.00;;
22614;SDS011;11474;50.790;0.298;2023-02-20T09:29:09;13.60;;;4.05;;
22614;SDS011;11474;50.790;0.298;2023-02-20T09:31:35;12.80;;;3.80;;
22614;SDS011;11474;50.790;0.298;2023-02-20T09:34:01;11.45;;;4.15;;
22614;SDS011;11474;50.790;0.298;2023-02-20T09:36:28;11.05;;;4.20;;
22614;SDS011;11474;50.790;0.298;2023-02-20T09:38:54;10.98;;;3.95;;
22614;SDS011;11474;50.790;0.298;2023-02-20T09:43:50;9.52;;;4.10;;
22614;SDS011;11474;50.790;0.298;2023-02-20T09:46:21;12.15;;;4.60;;
22614;SDS011;11474;50.790;0.298;2023-02-20T09:51:18;9.83;;;4.47;;
22614;SDS011;11474;50.790;0.298;2023-02-20T09:56:15;12.27;;;4.88;;
22614;SDS011;11474;50.790;0.298;2023-02-20T09:58:51;11.50;;;5.03;;
22614;SDS011;11474;50.790;0.298;2023-02-20T10:01:19;11.95;;;4.15;;
22614;SDS011;11474;50.790;0.298;2023-02-20T10:06:32;13.32;;;4.70;;
22614;SDS011;11474;50.790;0.298;2023-02-20T10:08:58;15.10;;;4.50;;
22614;SDS011;11474;50.790;0.298;2023-02-20T10:11:41;17.20;;;5.47;;
22614;SDS011;11474;50.790;0.298;2023-02-20T10:14:25;9.57;;;4.72;;
22614;SDS011;11474;50.790;0.298;2023-02-20T10:26:44;11.68;;;4.55;;
22614;SDS011;11474;50.790;0.298;2023-02-20T10:29:25;12.60;;;4.72;;
22614;SDS011;11474;50.790;0.298;2023-02-20T10:32:02;11.32;;;4.82;;
22614;SDS011;11474;50.790;0.298;2023-02-20T10:34:30;10.00;;;4.88;;
22614;SDS011;11474;50.790;0.298;2023-02-20T10:37:03;12.35;;;4.80;;
22614;SDS011;11474;50.790;0.298;2023-02-20T10:39:31;10.75;;;5.00;;
22614;SDS011;11474;50.790;0.298;2023-02-20T10:42:00;15.00;;;4.90;;
22614;SDS011;11474;50.790;0.298;2023-02-20T10:52:08;9.38;;;4.47;;
22614;SDS011;11474;50.790;0.298;2023-02-20T10:54:49;8.27;;;3.92;;
22614;SDS011;11474;50.790;0.298;2023-02-20T10:57:24;10.63;;;3.72;;
22614;SDS011;11474;50.790;0.298;2023-02-20T10:59:54;6.03;;;3.03;;
22614;SDS011;11474;50.790;0.298;2023-02-20T11:02:27;8.47;;;3.23;;
22614;SDS011;11474;50.790;0.298;2023-02-20T11:05:06;8.80;;;3.20;;
22614;SDS011;11474;50.790;0.298;2023-02-20T11:07:33;5.90;;;2.72;;
22614;SDS011;11474;50.790;0.298;2023-02-20T11:09:59;9.75;;;3.38;;
22614;SDS011;11474;50.790;0.298;2023-02-20T11:14:55;7.13;;;2.80;;
22614;SDS011;11474;50.790;0.298;2023-02-20T11:17:23;10.18;;;3.13;;
22614;SDS011;11474;50.790;0.298;2023-02-20T11:19:52;9.88;;;3.22;;
22614;SDS011;11474;50.790;0.298;2023-02-20T11:22:36;8.38;;;2.60;;
22614;SDS011;11474;50.790;0.298;2023-02-20T11:25:45;8.48;;;2.58;;
22614;SDS011;11474;50.790;0.298;2023-02-20T11:27:54;9.43;;;2.70;;
22614;SDS011;11474;50.790;0.298;2023-02-20T11:32:47;8.15;;;2.53;;
22614;SDS011;11474;50.790;0.298;2023-02-20T11:37:40;8.45;;;2.40;;
22614;SDS011;11474;50.790;0.298;2023-02-20T11:40:20;8.30;;;2.42;;
22614;SDS011;11474;50.790;0.298;2023-02-20T11:42:49;7.32;;;2.35;;
22614;SDS011;11474;50.790;0.298;2023-02-20T11:45:16;10.35;;;2.47;;
22614;SDS011;11474;50.790;0.298;2023-02-20T11:47:52;6.55;;;2.15;;
22614;SDS011;11474;50.790;0.298;2023-02-20T11:50:37;11.18;;;2.20;;
22614;SDS011;11474;50.790;0.298;2023-02-20T11:53:04;5.55;;;2.05;;
22614;SDS011;11474;50.790;0.298;2023-02-20T11:55:32;10.98;;;2.10;;
22614;SDS011;11474;50.790;0.298;2023-02-20T11:57:58;8.45;;;2.40;;
22614;SDS011;11474;50.790;0.298;2023-02-20T12:02:54;7.07;;;2.10;;
22614;SDS011;11474;50.790;0.298;2023-02-20T12:05:35;11.10;;;2.47;;
22614;SDS011;11474;50.790;0.298;2023-02-20T12:08:01;9.65;;;2.58;;
22614;SDS011;11474;50.790;0.298;2023-02-20T12:10:35;5.35;;;2.00;;
22614;SDS011;11474;50.790;0.298;2023-02-20T12:13:03;10.60;;;2.90;;
22614;SDS011;11474;50.790;0.298;2023-02-20T12:15:30;7.47;;;2.47;;
22614;SDS011;11474;50.790;0.298;2023-02-20T12:20:43;5.80;;;2.03;;
22614;SDS011;11474;50.790;0.298;2023-02-20T12:36:35;10.10;;;2.45;;
22614;SDS011;11474;50.790;0.298;2023-02-20T12:54:11;7.83;;;2.50;;
22614;SDS011;11474;50.790;0.298;2023-02-20T13:01:39;7.25;;;3.10;;
22614;SDS011;11474;50.790;0.298;2023-02-20T13:11:49;6.27;;;2.33;;
22614;SDS011;11474;50.790;0.298;2023-02-20T13:14:18;8.10;;;2.50;;
22614;SDS011;11474;50.790;0.298;2023-02-20T13:17:10;7.82;;;2.40;;
22614;SDS011;11474;50.790;0.298;2023-02-20T13:19:41;7.03;;;2.22;;
22614;SDS011;11474;50.790;0.298;2023-02-20T13:22:08;10.27;;;2.30;;
22614;SDS011;11474;50.790;0.298;2023-02-20T13:24:36;9.23;;;2.50;;
22614;SDS011;11474;50.790;0.298;2023-02-20T13:27:06;6.07;;;2.60;;
22614;SDS011;11474;50.790;0.298;2023-02-20T13:29:54;6.88;;;2.60;;
22614;SDS011;11474;50.790;0.298;2023-02-20T13:32:23;8.27;;;3.20;;
22614;SDS011;11474;50.790;0.298;2023-02-20T13:34:49;9.32;;;3.38;;
22614;SDS011;11474;50.790;0.298;2023-02-20T13:38:17;9.35;;;3.50;;
22614;SDS011;11474;50.790;0.298;2023-02-20T13:45:41;7.13;;;3.50;;
22614;SDS011;11474;50.790;0.298;2023-02-20T13:50:43;10.80;;;3.42;;
22614;SDS011;11474;50.790;0.298;2023-02-20T13:53:09;9.73;;;3.85;;
22614;SDS011;11474;50.790;0.298;2023-02-20T13:55:35;10.25;;;3.92;;
22614;SDS011;11474;50.790;0.298;2023-02-20T13:58:12;11.98;;;4.00;;
22614;SDS011;11474;50.790;0.298;2023-02-20T14:00:52;9.57;;;3.58;;
22614;SDS011;11474;50.790;0.298;2023-02-20T14:05:45;10.02;;;3.90;;
22614;SDS011;11474;50.790;0.298;2023-02-20T14:08:17;9.13;;;3.70;;
22614;SDS011;11474;50.790;0.298;2023-02-20T14:10:43;10.52;;;3.85;;
22614;SDS011;11474;50.790;0.298;2023-02-20T14:13:16;10.35;;;4.18;;
22614;SDS011;11474;50.790;0.298;2023-02-20T14:15:45;8.80;;;3.78;;
22614;SDS011;11474;50.790;0.298;2023-02-20T14:18:15;8.00;;;3.70;;
22614;SDS011;11474;50.790;0.298;2023-02-20T14:20:42;8.13;;;3.40;;
22614;SDS011;11474;50.790;0.298;2023-02-20T14:23:20;8.68;;;3.65;;
22614;SDS011;11474;50.790;0.298;2023-02-20T14:25:53;9.48;;;3.65;;
22614;SDS011;11474;50.790;0.298;2023-02-20T14:28:19;9.50;;;3.20;;
22614;SDS011;11474;50.790;0.298;2023-02-20T14:30:45;10.07;;;3.00;;
22614;SDS011;11474;50.790;0.298;2023-02-20T14:33:19;12.63;;;3.60;;
22614;SDS011;11474;50.790;0.298;2023-02-20T14:41:10;8.68;;;3.53;;
22614;SDS011;11474;50.790;0.298;2023-02-20T14:43:37;8.52;;;3.00;;
22614;SDS011;11474;50.790;0.298;2023-02-20T14:46:04;7.28;;;3.22;;
22614;SDS011;11474;50.790;0.298;2023-02-20T14:48:32;6.60;;;2.70;;
22614;SDS011;11474;50.790;0.298;2023-02-20T14:51:01;8.68;;;2.97;;
22614;SDS011;11474;50.790;0.298;2023-02-20T14:53:27;7.28;;;2.30;;
22614;SDS011;11474;50.790;0.298;2023-02-20T14:55:53;7.07;;;2.47;;
22614;SDS011;11474;50.790;0.298;2023-02-20T14:58:20;6.60;;;2.53;;
22614;SDS011;11474;50.790;0.298;2023-02-20T15:00:52;7.00;;;2.40;;
22614;SDS011;11474;50.790;0.298;2023-02-20T15:03:24;5.80;;;2.40;;
22614;SDS011;11474;50.790;0.298;2023-02-20T15:05:51;7.82;;;2.45;;
22614;SDS011;11474;50.790;0.298;2023-02-20T15:10:50;6.78;;;2.45;;
22614;SDS011;11474;50.790;0.298;2023-02-20T15:13:18;5.45;;;2.20;;
22614;SDS011;11474;50.790;0.298;2023-02-20T15:15:49;4.70;;;2.50;;
22614;SDS011;11474;50.790;0.298;2023-02-20T15:18:16;9.55;;;1.90;;
22614;SDS011;11474;50.790;0.298;2023-02-20T15:20:54;5.50;;;1.70;;
22614;SDS011;11474;50.790;0.298;2023-02-20T15:25:46;5.43;;;1.70;;
22614;SDS011;11474;50.790;0.298;2023-02-20T15:33:26;7.38;;;2.00;;
22614;SDS011;11474;50.790;0.298;2023-02-20T15:35:53;4.93;;;1.70;;
22614;SDS011;11474;50.790;0.298;2023-02-20T15:38:19;5.53;;;1.60;;
22614;SDS011;11474;50.790;0.298;2023-02-20T15:40:45;5.25;;;1.38;;
22614;SDS011;11474;50.790;0.298;2023-02-20T15:43:12;4.57;;;1.20;;
22614;SDS011;11474;50.790;0.298;2023-02-20T15:45:38;6.43;;;1.52;;
22614;SDS011;11474;50.790;0.298;2023-02-20T15:48:05;3.33;;;1.20;;
22614;SDS011;11474;50.790;0.298;2023-02-20T15:50:32;5.20;;;1.30;;
22614;SDS011;11474;50.790;0.298;2023-02-20T15:52:59;2.40;;;1.10;;
22614;SDS011;11474;50.790;0.298;2023-02-20T15:55:26;6.70;;;1.60;;
22614;SDS011;11474;50.790;0.298;2023-02-20T15:57:53;3.40;;;1.10;;
22614;SDS011;11474;50.790;0.298;2023-02-20T16:00:22;4.07;;;1.00;;
22614;SDS011;11474;50.790;0.298;2023-02-20T16:02:49;2.73;;;1.17;;
22614;SDS011;11474;50.790;0.298;2023-02-20T16:05:15;2.88;;;1.13;;
22614;SDS011;11474;50.790;0.298;2023-02-20T16:07:41;3.40;;;1.50;;
22614;SDS011;11474;50.790;0.298;2023-02-20T16:10:08;4.35;;;1.58;;
22614;SDS011;11474;50.790;0.298;2023-02-20T16:12:34;4.03;;;1.50;;
22614;SDS011;11474;50.790;0.298;2023-02-20T16:15:02;5.25;;;1.55;;
22614;SDS011;11474;50.790;0.298;2023-02-20T16:17:29;2.35;;;1.00;;
22614;SDS011;11474;50.790;0.298;2023-02-20T16:19:56;2.65;;;1.20;;
22614;SDS011;11474;50.790;0.298;2023-02-20T16:22:22;4.22;;;1.30;;
22614;SDS011;11474;50.790;0.298;2023-02-20T16:24:49;3.05;;;1.23;;
22614;SDS011;11474;50.790;0.298;2023-02-20T16:27:22;4.40;;;1.55;;
22614;SDS011;11474;50.790;0.298;2023-02-20T16:29:48;2.27;;;1.20;;
22614;SDS011;11474;50.790;0.298;2023-02-20T16:32:22;2.42;;;1.20;;
22614;SDS011;11474;50.790;0.298;2023-02-20T16:34:49;3.08;;;1.30;;
22614;SDS011;11474;50.790;0.298;2023-02-20T16:37:16;4.03;;;1.40;;
22614;SDS011;11474;50.790;0.298;2023-02-20T16:39:42;3.67;;;2.00;;
22614;SDS011;11474;50.790;0.298;2023-02-20T16:42:19;5.45;;;2.30;;
22614;SDS011;11474;50.790;0.298;2023-02-20T16:44:45;5.47;;;1.67;;
22614;SDS011;11474;50.790;0.298;2023-02-20T16:47:16;4.15;;;1.85;;
22614;SDS011;11474;50.790;0.298;2023-02-20T16:49:42;6.68;;;1.60;;
22614;SDS011;11474;50.790;0.298;2023-02-20T16:52:12;7.95;;;2.13;;
22614;SDS011;11474;50.790;0.298;2023-02-20T16:54:42;4.30;;;1.73;;
22614;SDS011;11474;50.790;0.298;2023-02-20T16:57:09;8.83;;;2.70;;
22614;SDS011;11474;50.790;0.298;2023-02-20T16:59:35;6.47;;;2.20;;
22614;SDS011;11474;50.790;0.298;2023-02-20T17:02:01;8.13;;;1.98;;
22614;SDS011;11474;50.790;0.298;2023-02-20T17:04:27;6.57;;;1.80;;
22614;SDS011;11474;50.790;0.298;2023-02-20T17:06:53;5.50;;;1.55;;